createdAt,value
2023-04-25T00:02:16.739Z,35.36
2023-04-25T00:04:44.730Z,35.56
2023-04-25T00:07:12.303Z,35.59
2023-04-25T00:09:39.248Z,35.67
2023-04-25T00:12:06.901Z,35.74
2023-04-25T00:14:35.304Z,35.74
2023-04-25T00:17:03.777Z,35.72
2023-04-25T00:19:30.663Z,35.68
2023-04-25T00:21:57.457Z,35.69
2023-04-25T00:24:24.205Z,35.55
2023-04-25T00:26:51.174Z,35.59
2023-04-25T00:29:18.086Z,35.36
2023-04-25T00:31:44.949Z,35.61
2023-04-25T00:34:11.823Z,35.88
2023-04-25T00:36:39.248Z,35.83
2023-04-25T00:39:06.053Z,35.83
2023-04-25T00:41:33.132Z,35.86
2023-04-25T00:44:00.436Z,35.92
2023-04-25T00:46:27.288Z,36.41
2023-04-25T00:48:54.144Z,36.01
2023-04-25T00:51:21.842Z,35.83
2023-04-25T00:53:50.364Z,35.93
2023-04-25T00:56:17.655Z,35.88
2023-04-25T00:58:44.423Z,36.28
2023-04-25T01:01:11.690Z,36.67
2023-04-25T01:03:42.018Z,36.72
2023-04-25T01:06:10.339Z,36.58
2023-04-25T01:08:38.496Z,36.68
2023-04-25T01:11:05.855Z,36.96
2023-04-25T01:13:33.121Z,37.79
2023-04-25T01:16:00.637Z,37.75
2023-04-25T01:18:27.523Z,37.45
2023-04-25T01:20:54.781Z,37.30
2023-04-25T01:23:22.628Z,37.00
2023-04-25T01:25:49.999Z,36.70
2023-04-25T01:28:17.322Z,36.68
2023-04-25T01:30:44.168Z,37.12
2023-04-25T01:33:11.030Z,37.30
2023-04-25T01:35:37.778Z,37.44
2023-04-25T01:38:04.578Z,37.27
2023-04-25T01:40:33.344Z,36.93
2023-04-25T01:43:00.175Z,36.59
2023-04-25T01:45:26.933Z,36.79
2023-04-25T01:47:53.895Z,37.30
2023-04-25T01:50:21.307Z,36.99
2023-04-25T01:52:48.644Z,36.42
2023-04-25T01:55:15.759Z,36.68
2023-04-25T01:57:56.871Z,37.12
2023-04-25T02:00:33.822Z,36.84
2023-04-25T02:03:00.747Z,37.93
2023-04-25T02:05:36.664Z,38.31
2023-04-25T02:08:09.373Z,38.07
2023-04-25T02:10:36.412Z,37.69
2023-04-25T02:13:19.463Z,38.07
2023-04-25T02:15:58.406Z,37.29
2023-04-25T02:18:27.411Z,36.11
2023-04-25T02:20:54.269Z,35.91
2023-04-25T02:23:21.244Z,35.77
2023-04-25T02:25:48.049Z,35.52
2023-04-25T02:28:14.899Z,35.37
2023-04-25T02:30:41.854Z,35.51
2023-04-25T02:33:08.877Z,35.56
2023-04-25T02:35:36.457Z,35.38
2023-04-25T02:38:03.417Z,36.05
2023-04-25T02:40:30.255Z,36.49
2023-04-25T02:42:57.369Z,36.70
2023-04-25T02:45:27.040Z,36.32
2023-04-25T02:47:53.958Z,36.28
2023-04-25T02:50:21.019Z,36.82
2023-04-25T02:52:48.019Z,37.17
2023-04-25T02:55:19.249Z,36.74
2023-04-25T02:57:46.437Z,37.31
2023-04-25T03:00:16.662Z,38.69
2023-04-25T03:05:58.477Z,38.24
2023-04-25T03:08:47.394Z,38.49
2023-04-25T03:11:32.865Z,39.24
2023-04-25T03:14:19.324Z,39.22
2023-04-25T03:16:46.384Z,38.09
2023-04-25T03:19:13.301Z,37.88
2023-04-25T03:21:40.115Z,37.81
2023-04-25T03:24:06.944Z,37.36
2023-04-25T03:26:33.702Z,37.36
2023-04-25T03:29:00.597Z,36.82
2023-04-25T03:31:27.940Z,35.90
2023-04-25T03:33:54.661Z,35.35
2023-04-25T03:36:22.348Z,34.75
2023-04-25T03:38:49.478Z,34.90
2023-04-25T03:41:16.650Z,34.57
2023-04-25T03:43:47.616Z,34.02
2023-04-25T03:46:14.842Z,33.49
2023-04-25T03:48:42.467Z,33.20
2023-04-25T03:51:10.139Z,32.74
2023-04-25T03:53:38.694Z,32.39
2023-04-25T03:56:21.577Z,32.25
2023-04-25T03:58:52.821Z,31.94
2023-04-25T04:01:20.601Z,31.62
2023-04-25T04:03:47.911Z,31.29
2023-04-25T04:06:15.948Z,30.81
2023-04-25T04:08:46.069Z,30.02
2023-04-25T04:11:12.868Z,29.50
2023-04-25T04:13:39.737Z,29.10
2023-04-25T04:16:07.339Z,28.88
2023-04-25T04:18:34.507Z,28.61
2023-04-25T04:21:02.219Z,27.92
2023-04-25T04:23:32.159Z,27.38
2023-04-25T04:25:59.639Z,26.93
2023-04-25T04:28:29.498Z,26.83
2023-04-25T04:31:09.122Z,26.21
2023-04-25T04:33:36.074Z,25.82
2023-04-25T04:36:05.110Z,25.76
2023-04-25T04:38:33.155Z,25.82
2023-04-25T04:41:02.358Z,25.65
2023-04-25T04:43:40.780Z,25.56
2023-04-25T04:46:29.789Z,25.63
2023-04-25T04:49:11.911Z,25.30
2023-04-25T04:51:57.875Z,24.68
2023-04-25T04:56:53.454Z,27.43
2023-04-25T04:59:29.929Z,25.25
2023-04-25T05:02:05.752Z,24.33
2023-04-25T05:04:55.467Z,23.73
2023-04-25T05:07:41.434Z,23.07
2023-04-25T05:10:27.359Z,22.16
2023-04-25T05:13:08.269Z,22.25
2023-04-25T05:15:57.930Z,22.08
2023-04-25T05:18:43.248Z,22.08
2023-04-25T05:21:23.956Z,21.80
2023-04-25T05:24:02.884Z,21.81
2023-04-25T05:26:48.661Z,21.93
2023-04-25T05:29:44.810Z,22.13
2023-04-25T05:32:18.908Z,22.02
2023-04-25T05:34:47.655Z,22.45
2023-04-25T05:37:27.710Z,22.58
2023-04-25T05:40:07.763Z,22.05
2023-04-25T05:43:10.073Z,21.68
2023-04-25T05:45:58.154Z,21.06
2023-04-25T05:48:27.754Z,21.04
2023-04-25T05:51:00.251Z,20.57
2023-04-25T05:53:59.532Z,20.34
2023-04-25T05:56:27.406Z,20.75
2023-04-25T05:58:54.708Z,20.60
2023-04-25T06:01:22.561Z,20.63
2023-04-25T06:03:49.870Z,20.89
2023-04-25T06:06:17.842Z,20.82
2023-04-25T06:08:44.699Z,20.52
2023-04-25T06:11:12.392Z,20.16
2023-04-25T06:13:39.288Z,20.40
2023-04-25T06:16:07.517Z,20.90
2023-04-25T06:18:34.310Z,20.99
2023-04-25T06:21:01.629Z,20.88
2023-04-25T06:23:29.023Z,20.56
2023-04-25T06:26:04.864Z,20.66
2023-04-25T06:28:32.060Z,20.44
2023-04-25T06:30:59.851Z,20.73
2023-04-25T06:33:27.698Z,20.46
2023-04-25T06:35:54.958Z,20.52
2023-04-25T06:38:24.733Z,19.98
2023-04-25T06:40:52.494Z,20.23
2023-04-25T06:43:19.455Z,19.87
2023-04-25T06:46:15.707Z,18.99
2023-04-25T06:48:44.939Z,18.66
2023-04-25T06:51:11.993Z,18.48
2023-04-25T06:53:39.230Z,18.49
2023-04-25T06:56:07.561Z,17.98
2023-04-25T06:58:46.790Z,18.15
2023-04-25T07:01:20.973Z,18.27
2023-04-25T07:03:48.066Z,17.94
2023-04-25T07:06:17.438Z,16.93
2023-04-25T07:08:44.320Z,16.86
2023-04-25T07:11:11.146Z,17.09
2023-04-25T07:13:38.076Z,17.52
2023-04-25T07:16:06.062Z,17.14
2023-04-25T07:18:33.693Z,17.53
2023-04-25T07:21:00.934Z,17.41
2023-04-25T07:23:28.509Z,16.75
2023-04-25T07:25:55.620Z,16.69
2023-04-25T07:28:22.875Z,16.95
2023-04-25T07:30:49.584Z,16.93
2023-04-25T07:33:16.436Z,17.02
2023-04-25T07:35:44.303Z,17.07
2023-04-25T07:38:11.817Z,17.28
2023-04-25T07:40:38.925Z,17.35
2023-04-25T07:43:07.589Z,17.34
2023-04-25T07:45:40.319Z,16.94
2023-04-25T07:48:07.647Z,16.27
2023-04-25T07:50:36.627Z,16.68
2023-04-25T07:53:03.635Z,16.48
2023-04-25T07:55:34.779Z,16.25
2023-04-25T07:58:10.698Z,15.94
2023-04-25T08:00:39.124Z,15.97
2023-04-25T08:03:38.535Z,15.97
2023-04-25T08:06:09.734Z,15.73
2023-04-25T08:08:44.352Z,16.12
2023-04-25T08:11:13.353Z,16.33
2023-04-25T08:13:40.873Z,16.79
2023-04-25T08:16:07.824Z,16.39
2023-04-25T08:18:35.363Z,15.97
2023-04-25T08:21:02.302Z,15.47
2023-04-25T08:23:29.102Z,14.98
2023-04-25T08:26:05.883Z,14.99
2023-04-25T08:28:33.640Z,14.94
2023-04-25T08:31:01.009Z,14.70
2023-04-25T08:33:33.843Z,15.10
2023-04-25T08:36:31.593Z,15.48
2023-04-25T08:39:05.543Z,15.29
2023-04-25T08:41:32.828Z,15.39
2023-04-25T08:44:01.344Z,15.73
2023-04-25T08:46:28.352Z,15.37
2023-04-25T08:49:06.122Z,15.19
2023-04-25T08:51:33.697Z,15.03
2023-04-25T08:56:47.725Z,14.46
2023-04-25T08:59:14.600Z,14.19
2023-04-25T09:01:42.883Z,14.32
2023-04-25T09:04:10.304Z,14.14
2023-04-25T09:06:37.371Z,14.17
2023-04-25T09:09:06.340Z,15.01
2023-04-25T09:11:34.317Z,15.18
2023-04-25T09:14:16.065Z,15.28
2023-04-25T09:17:05.966Z,14.76
2023-04-25T09:19:42.629Z,14.83
2023-04-25T09:22:23.858Z,15.05
2023-04-25T09:24:52.436Z,14.69
2023-04-25T09:27:24.062Z,15.03
2023-04-25T09:30:00.372Z,16.06
2023-04-25T09:32:28.040Z,16.17
2023-04-25T09:34:57.196Z,16.38
2023-04-25T09:37:30.982Z,16.36
2023-04-25T09:40:27.510Z,16.50
2023-04-25T09:43:10.460Z,16.23
2023-04-25T09:45:46.886Z,16.21
2023-04-25T09:48:24.312Z,15.63
2023-04-25T09:51:06.774Z,15.30
2023-04-25T09:53:53.222Z,16.35
2023-04-25T09:56:40.763Z,15.76
2023-04-25T09:59:08.362Z,16.01
2023-04-25T10:01:37.795Z,16.04
2023-04-25T10:04:24.150Z,16.31
2023-04-25T10:07:07.367Z,15.79
2023-04-25T10:09:34.969Z,15.41
2023-04-25T10:12:03.931Z,15.10
2023-04-25T10:14:32.149Z,15.51
2023-04-25T10:16:59.766Z,15.57
2023-04-25T10:19:27.654Z,15.21
2023-04-25T10:22:23.780Z,14.98
2023-04-25T10:24:51.136Z,14.71
2023-04-25T10:27:17.882Z,14.79
2023-04-25T10:29:46.505Z,15.30
2023-04-25T10:32:13.504Z,15.87
2023-04-25T10:34:47.653Z,16.03
2023-04-25T10:37:14.512Z,16.45
2023-04-25T10:39:42.495Z,17.00
2023-04-25T10:42:09.501Z,17.12
2023-04-25T10:44:38.004Z,17.05
2023-04-25T10:47:06.772Z,16.76
2023-04-25T10:49:38.238Z,16.93
2023-04-25T10:52:24.030Z,17.25
2023-04-25T10:54:56.019Z,17.40
2023-04-25T10:57:40.234Z,17.44
2023-04-25T11:00:12.192Z,17.17
2023-04-25T11:02:53.249Z,17.09
2023-04-25T11:05:21.379Z,17.09
2023-04-25T11:08:07.053Z,17.23
2023-04-25T11:10:36.802Z,16.99
2023-04-25T11:13:03.647Z,16.45
2023-04-25T11:15:30.824Z,16.71
2023-04-25T11:17:57.744Z,16.78
2023-04-25T11:20:27.013Z,16.84
2023-04-25T11:22:54.027Z,17.40
2023-04-25T11:25:21.185Z,17.70
2023-04-25T11:27:52.428Z,17.74
2023-04-25T11:30:19.804Z,17.08
2023-04-25T11:32:46.672Z,16.93
2023-04-25T11:35:13.556Z,16.68
2023-04-25T11:37:44.678Z,17.07
2023-04-25T11:40:12.702Z,17.49
2023-04-25T11:42:48.839Z,17.07
2023-04-25T11:45:15.851Z,16.72
2023-04-25T11:47:42.771Z,16.63
2023-04-25T11:50:10.919Z,17.23
2023-04-25T11:52:42.180Z,17.60
2023-04-25T11:55:11.504Z,17.64
2023-04-25T11:57:39.717Z,17.41
2023-04-25T12:00:18.884Z,17.29
2023-04-25T12:02:47.637Z,17.05
2023-04-25T12:07:49.025Z,16.33
2023-04-25T12:10:17.128Z,15.54
2023-04-25T12:12:45.539Z,16.29
2023-04-25T12:15:16.782Z,17.07
2023-04-25T12:17:44.483Z,16.89
2023-04-25T12:20:15.892Z,16.86
2023-04-25T12:22:45.687Z,17.09
2023-04-25T12:25:13.984Z,17.03
2023-04-25T12:27:46.321Z,17.08
2023-04-25T12:30:13.406Z,17.35
2023-04-25T12:32:40.708Z,17.26
2023-04-25T12:35:08.420Z,16.99
2023-04-25T12:37:35.171Z,17.68
2023-04-25T12:40:02.028Z,17.54
2023-04-25T12:42:28.824Z,17.34
2023-04-25T12:44:55.614Z,17.27
2023-04-25T12:47:22.476Z,16.86
2023-04-25T12:49:49.974Z,16.94
2023-04-25T12:52:16.721Z,17.04
2023-04-25T12:54:43.592Z,16.71
2023-04-25T12:57:10.730Z,16.79
2023-04-25T12:59:37.665Z,17.01
2023-04-25T13:02:04.687Z,16.95
2023-04-25T13:04:31.858Z,16.95
2023-04-25T13:06:58.790Z,16.56
2023-04-25T13:09:25.549Z,16.58
2023-04-25T13:11:54.880Z,16.63
2023-04-25T13:14:24.082Z,16.57
2023-04-25T13:16:51.069Z,16.26
2023-04-25T13:19:18.024Z,16.24
2023-04-25T13:21:44.785Z,16.37
2023-04-25T13:24:11.615Z,16.59
2023-04-25T13:26:38.414Z,16.09
2023-04-25T13:29:05.215Z,16.12
2023-04-25T13:31:32.214Z,16.14
2023-04-25T13:33:59.045Z,16.17
2023-04-25T13:36:25.817Z,16.07
2023-04-25T13:38:55.677Z,15.98
2023-04-25T13:41:22.497Z,16.41
2023-04-25T13:43:49.916Z,16.26
2023-04-25T13:46:35.531Z,16.39
2023-04-25T13:49:12.178Z,16.74
2023-04-25T13:51:43.687Z,17.17
2023-04-25T13:54:10.999Z,17.40
2023-04-25T13:56:37.837Z,17.33
2023-04-25T13:59:04.597Z,16.94
2023-04-25T14:01:35.118Z,16.97
2023-04-25T14:04:04.854Z,16.83
2023-04-25T14:06:33.135Z,16.96
2023-04-25T14:09:02.114Z,17.12
2023-04-25T14:11:28.915Z,16.70
2023-04-25T14:13:55.708Z,16.94
2023-04-25T14:16:24.109Z,16.76
2023-04-25T14:18:51.128Z,16.41
2023-04-25T14:21:17.985Z,16.58
2023-04-25T14:23:44.729Z,16.64
2023-04-25T14:26:13.652Z,16.74
2023-04-25T14:28:40.530Z,16.80
2023-04-25T14:31:07.307Z,16.97
2023-04-25T14:33:34.274Z,16.58
2023-04-25T14:36:01.120Z,16.25
2023-04-25T14:38:27.910Z,16.24
2023-04-25T14:40:55.232Z,16.58
2023-04-25T14:43:22.305Z,16.53
2023-04-25T14:45:49.233Z,16.39
2023-04-25T14:48:16.436Z,16.17
2023-04-25T14:50:43.312Z,16.11
2023-04-25T14:53:10.075Z,16.11
2023-04-25T14:55:37.091Z,16.13
2023-04-25T14:58:03.833Z,16.07
2023-04-25T15:00:32.758Z,16.04
2023-04-25T15:03:00.023Z,16.13
2023-04-25T15:05:27.685Z,16.10
2023-04-25T15:07:54.445Z,16.24
2023-04-25T15:10:21.637Z,16.67
2023-04-25T15:12:48.349Z,17.02
2023-04-25T15:15:22.808Z,16.82
2023-04-25T15:17:54.005Z,17.10
2023-04-25T15:20:22.263Z,16.87
2023-04-25T15:22:49.842Z,16.90
2023-04-25T15:25:19.572Z,16.78
2023-04-25T15:27:49.040Z,16.85
2023-04-25T15:30:16.759Z,17.09
2023-04-25T15:32:44.462Z,17.15
2023-04-25T15:35:11.390Z,17.14
2023-04-25T15:37:38.295Z,16.79
2023-04-25T15:40:09.927Z,17.11
2023-04-25T15:42:37.744Z,16.50
2023-04-25T15:45:05.418Z,16.57
2023-04-25T15:47:32.489Z,16.29
2023-04-25T15:49:59.617Z,16.72
2023-04-25T15:52:26.403Z,17.18
2023-04-25T15:54:53.242Z,16.96
2023-04-25T15:57:20.023Z,17.27
2023-04-25T15:59:48.964Z,17.32
2023-04-25T16:02:16.510Z,17.65
2023-04-25T16:04:43.685Z,17.04
2023-04-25T16:07:10.915Z,17.42
2023-04-25T16:09:37.754Z,17.36
2023-04-25T16:12:04.894Z,16.87
2023-04-25T16:14:31.779Z,16.86
2023-04-25T16:17:00.255Z,16.97
2023-04-25T16:19:27.092Z,17.08
2023-04-25T16:21:54.164Z,17.09
2023-04-25T16:24:20.900Z,17.42
2023-04-25T16:26:47.970Z,17.61
2023-04-25T16:29:16.886Z,17.80
2023-04-25T16:31:43.994Z,17.43
2023-04-25T16:34:12.199Z,17.95
2023-04-25T16:36:38.948Z,17.88
2023-04-25T16:39:08.603Z,17.82
2023-04-25T16:41:35.647Z,18.04
2023-04-25T16:44:02.447Z,17.60
2023-04-25T16:46:29.192Z,17.70
2023-04-25T16:48:56.423Z,17.75
2023-04-25T16:51:25.219Z,18.04
2023-04-25T16:53:53.131Z,18.12
2023-04-25T16:56:20.076Z,18.17
2023-04-25T16:58:46.827Z,18.19
2023-04-25T17:01:16.194Z,18.07
2023-04-25T17:03:43.816Z,17.93
2023-04-25T17:06:10.709Z,18.34
2023-04-25T17:08:37.653Z,18.52
2023-04-25T17:13:44.290Z,21.52
2023-04-25T17:16:12.403Z,20.04
2023-04-25T17:18:39.250Z,19.68
2023-04-25T17:21:06.289Z,19.73
2023-04-25T17:23:33.654Z,19.39
2023-04-25T17:26:00.601Z,19.54
2023-04-25T17:28:27.591Z,19.76
2023-04-25T17:30:55.106Z,19.64
2023-04-25T17:33:26.875Z,19.60
2023-04-25T17:35:54.459Z,19.43
2023-04-25T17:38:21.725Z,19.67
2023-04-25T17:40:48.928Z,19.42
2023-04-25T17:43:16.246Z,19.48
2023-04-25T17:45:43.074Z,19.79
2023-04-25T17:48:09.851Z,20.26
2023-04-25T17:50:36.659Z,20.52
2023-04-25T17:53:03.716Z,20.48
2023-04-25T17:55:30.899Z,20.47
2023-04-25T17:57:57.653Z,20.57
2023-04-25T18:00:24.895Z,20.61
2023-04-25T18:02:52.789Z,21.02
2023-04-25T18:05:20.297Z,21.29
2023-04-25T18:07:47.247Z,21.91
2023-04-25T18:10:14.470Z,21.43
2023-04-25T18:12:41.665Z,22.23
2023-04-25T18:15:09.333Z,22.48
2023-04-25T18:17:42.879Z,22.52
2023-04-25T18:20:14.026Z,22.69
2023-04-25T18:22:41.129Z,23.76
2023-04-25T18:25:09.873Z,23.92
2023-04-25T18:27:40.241Z,23.78
2023-04-25T18:30:09.045Z,24.24
2023-04-25T18:32:36.080Z,24.94
2023-04-25T18:35:03.638Z,24.98
2023-04-25T18:37:31.147Z,25.20
2023-04-25T18:39:58.658Z,24.49
2023-04-25T18:42:25.600Z,24.87
2023-04-25T18:44:52.962Z,25.03
2023-04-25T18:47:19.737Z,25.34
2023-04-25T18:49:47.872Z,25.37
2023-04-25T18:52:16.170Z,25.34
2023-04-25T18:54:43.365Z,25.72
2023-04-25T18:57:14.513Z,26.20
2023-04-25T18:59:41.774Z,26.29
2023-04-25T19:02:09.052Z,26.19
2023-04-25T19:04:36.106Z,26.36
2023-04-25T19:07:04.205Z,26.76
2023-04-25T19:09:31.195Z,27.35
2023-04-25T19:11:57.934Z,27.65
2023-04-25T19:14:26.051Z,28.07
2023-04-25T19:16:54.227Z,28.99
2023-04-25T19:19:21.090Z,28.81
2023-04-25T19:21:50.613Z,28.94
2023-04-25T19:24:17.384Z,28.86
2023-04-25T19:26:44.155Z,29.01
2023-04-25T19:29:15.057Z,29.17
2023-04-25T19:31:44.129Z,28.92
2023-04-25T19:34:11.627Z,28.68
2023-04-25T19:36:39.266Z,29.22
2023-04-25T19:39:07.377Z,29.33
2023-04-25T19:41:39.031Z,29.36
2023-04-25T19:44:07.631Z,29.38
2023-04-25T19:46:34.688Z,29.14
2023-04-25T19:49:01.598Z,29.22
2023-04-25T19:51:31.366Z,29.54
2023-04-25T19:53:58.062Z,29.94
2023-04-25T19:56:24.803Z,29.85
2023-04-25T19:58:51.892Z,29.78
2023-04-25T20:01:18.990Z,30.13
2023-04-25T20:03:48.360Z,30.22
2023-04-25T20:06:15.342Z,30.22
2023-04-25T20:08:42.140Z,30.43
2023-04-25T20:11:09.464Z,30.38
2023-04-25T20:13:36.743Z,30.31
2023-04-25T20:16:03.610Z,30.18
2023-04-25T20:18:30.353Z,30.12
2023-04-25T20:20:57.141Z,30.08
2023-04-25T20:23:23.899Z,30.47
2023-04-25T20:25:50.736Z,30.67
2023-04-25T20:28:17.900Z,30.64
2023-04-25T20:30:44.837Z,30.42
2023-04-25T20:33:11.710Z,30.27
2023-04-25T20:35:38.507Z,30.52
2023-04-25T20:38:05.564Z,30.42
2023-04-25T20:40:32.353Z,29.72
2023-04-25T20:42:59.133Z,30.11
2023-04-25T20:45:29.963Z,29.92
2023-04-25T20:47:56.848Z,29.71
2023-04-25T20:50:23.736Z,29.63
2023-04-25T20:52:51.236Z,29.63
2023-04-25T20:55:18.581Z,30.01
2023-04-25T20:57:45.622Z,29.77
2023-04-25T21:00:26.604Z,30.05
2023-04-25T21:02:53.694Z,29.89
2023-04-25T21:05:23.573Z,29.38
2023-04-25T21:07:52.508Z,29.10
2023-04-25T21:10:19.399Z,29.12
2023-04-25T21:12:48.124Z,29.94
2023-04-25T21:15:25.000Z,29.72
2023-04-25T21:17:52.281Z,29.53
2023-04-25T21:20:20.525Z,29.91
2023-04-25T21:22:50.382Z,29.46
2023-04-25T21:25:20.564Z,29.02
2023-04-25T21:27:49.385Z,29.24
2023-04-25T21:30:22.865Z,29.20
2023-04-25T21:32:53.214Z,28.98
2023-04-25T21:35:21.098Z,29.15
2023-04-25T21:37:47.987Z,29.59
2023-04-25T21:40:15.336Z,29.73
2023-04-25T21:42:42.576Z,29.45
2023-04-25T21:45:10.233Z,29.02
2023-04-25T21:47:37.199Z,29.26
2023-04-25T21:50:04.756Z,29.15
2023-04-25T21:52:32.032Z,29.12
2023-04-25T21:54:58.806Z,29.02
2023-04-25T21:57:25.615Z,28.46
2023-04-25T21:59:52.802Z,28.56
2023-04-25T22:02:19.793Z,28.51
2023-04-25T22:04:49.920Z,28.75
2023-04-25T22:07:16.693Z,29.20
2023-04-25T22:09:54.521Z,29.45
2023-04-25T22:12:23.634Z,29.57
2023-04-25T22:14:50.978Z,29.82
2023-04-25T22:17:18.953Z,29.88
2023-04-25T22:19:46.906Z,30.36
2023-04-25T22:22:14.060Z,30.95
2023-04-25T22:24:42.448Z,30.64
2023-04-25T22:27:11.040Z,30.54
2023-04-25T22:29:37.891Z,30.52
2023-04-25T22:32:05.558Z,30.59
2023-04-25T22:34:32.318Z,30.81
2023-04-25T22:36:59.710Z,30.72
2023-04-25T22:39:26.777Z,30.68
2023-04-25T22:41:54.420Z,31.42
2023-04-25T22:44:22.514Z,31.73
2023-04-25T22:46:49.558Z,31.31
2023-04-25T22:49:17.391Z,31.52
2023-04-25T22:51:44.296Z,31.83
2023-04-25T22:54:11.048Z,31.85
2023-04-25T22:56:37.866Z,32.02
2023-04-25T22:59:04.644Z,31.47
2023-04-25T23:01:31.709Z,32.03
2023-04-25T23:03:58.817Z,32.57
2023-04-25T23:06:26.557Z,32.96
2023-04-25T23:08:53.767Z,31.68
2023-04-25T23:11:21.821Z,31.37
2023-04-25T23:13:48.567Z,31.83
2023-04-25T23:16:15.519Z,31.96
2023-04-25T23:18:42.404Z,31.84
2023-04-25T23:21:09.336Z,32.13
2023-04-25T23:23:36.589Z,32.50
2023-04-25T23:26:10.202Z,32.16
2023-04-25T23:28:48.867Z,32.22
2023-04-25T23:31:15.941Z,32.40
2023-04-25T23:33:42.840Z,32.71
2023-04-25T23:36:20.008Z,32.89
2023-04-25T23:38:47.394Z,32.78
2023-04-25T23:41:14.323Z,33.02
2023-04-25T23:43:41.073Z,32.96
2023-04-25T23:46:09.310Z,33.05
2023-04-25T23:48:36.375Z,32.97
2023-04-25T23:51:03.515Z,33.36
2023-04-25T23:53:30.282Z,33.46
2023-04-25T23:55:57.009Z,33.65
2023-04-25T23:58:23.834Z,34.02
